Time;durP1;ratioP1;P1;durP2;ratioP2;P2;SDS_P1;SDS_P2;PMS_P1;PMS_P2;Temp;Humidity;BMP_temperature;BMP_pressure;BME280_temperature;BME280_humidity;BME280_pressure;Samples;Min_cycle;Max_cycle;Signal;HPM_P1;HPM_P2
2024/01/02 00:01:27;;;;;;;2.20;1.45;;;5.70;1.00;;;;;;5215636;28;20032;-34
2024/01/02 00:03:58;;;;;;;3.17;1.42;;;5.70;1.00;;;;;;5190766;28;20063;-31
2024/01/02 00:06:29;;;;;;;2.40;0.88;;;5.60;1.00;;;;;;5226133;28;20312;-32
2024/01/02 00:09:03;;;;;;;4.28;1.05;;;5.40;1.00;;;;;;5224845;28;20037;-31
2024/01/02 00:11:34;;;;;;;2.15;1.20;;;5.40;1.00;;;;;;5210438;28;20214;-33
2024/01/02 00:14:05;;;;;;;1.83;0.95;;;5.20;1.00;;;;;;5230313;28;20033;-31
2024/01/02 00:16:43;;;;;;;4.93;1.17;;;4.90;1.00;;;;;;5221580;28;20041;-32
2024/01/02 00:19:14;;;;;;;1.40;1.02;;;4.70;1.00;;;;;;5223545;28;20028;-32
2024/01/02 00:21:46;;;;;;;2.97;1.15;;;4.70;1.00;;;;;;5225639;28;20055;-31
2024/01/02 00:24:19;;;;;;;2.35;1.08;;;4.70;1.00;;;;;;5208867;28;20281;-31
2024/01/02 00:26:51;;;;;;;1.63;1.00;;;4.60;1.00;;;;;;5222289;28;20024;-33
2024/01/02 00:29:24;;;;;;;1.95;1.27;;;4.40;1.00;;;;;;5229271;28;20197;-33
2024/01/02 00:31:55;;;;;;;3.22;0.93;;;4.20;1.00;;;;;;5208615;28;20033;-33
2024/01/02 00:34:27;;;;;;;4.13;0.88;;;4.20;1.00;;;;;;5217192;28;20036;-33
2024/01/02 00:36:58;;;;;;;1.75;0.98;;;4.10;1.00;;;;;;5206420;28;20036;-32
2024/01/02 00:39:29;;;;;;;3.30;1.17;;;4.10;1.00;;;;;;5209275;28;20232;-33
2024/01/02 00:42:05;;;;;;;1.40;1.17;;;4.00;1.00;;;;;;5209854;28;20047;-36
2024/01/02 00:44:40;;;;;;;4.97;1.00;;;4.00;1.00;;;;;;5220691;28;20213;-31
2024/01/02 00:47:16;;;;;;;2.58;1.15;;;4.00;1.00;;;;;;5225860;28;20043;-32
2024/01/02 00:49:48;;;;;;;2.72;1.30;;;4.30;1.00;;;;;;5209505;28;20035;-32
2024/01/02 00:52:20;;;;;;;2.55;1.25;;;4.60;1.00;;;;;;5227010;28;20043;-32
2024/01/02 00:54:52;;;;;;;1.35;0.98;;;4.50;1.00;;;;;;5227351;28;20103;-33
2024/01/02 00:57:24;;;;;;;2.85;0.95;;;4.40;1.00;;;;;;5224627;28;20028;-32
2024/01/02 00:59:55;;;;;;;1.00;0.98;;;4.40;1.00;;;;;;5209411;28;20065;-32
2024/01/02 01:02:26;;;;;;;2.95;1.05;;;4.40;1.00;;;;;;5223547;28;20017;-31
2024/01/02 01:04:58;;;;;;;3.08;0.90;;;4.50;1.00;;;;;;5229287;28;20303;-31
2024/01/02 01:07:29;;;;;;;6.72;1.15;;;4.50;1.00;;;;;;5212308;28;20423;-31
2024/01/02 01:10:03;;;;;;;3.00;1.10;;;4.50;1.00;;;;;;5207286;28;20033;-32
2024/01/02 01:12:37;;;;;;;3.60;1.10;;;4.50;1.00;;;;;;5227508;28;20037;-32
2024/01/02 01:15:11;;;;;;;3.13;1.13;;;4.50;1.00;;;;;;5208968;28;20226;-32
2024/01/02 01:17:45;;;;;;;0.70;0.70;;;4.50;1.00;;;;;;5208473;28;20259;-32
2024/01/02 01:20:20;;;;;;;3.75;1.60;;;4.40;1.00;;;;;;5228757;28;20036;-32
2024/01/02 01:23:09;;;;;;;0.82;0.82;;;4.50;1.00;;;;;;5227096;28;20333;-32
2024/01/02 01:25:41;;;;;;;2.40;0.90;;;4.60;1.00;;;;;;5228324;28;20033;-32
2024/01/02 01:28:17;;;;;;;1.52;1.00;;;4.70;1.00;;;;;;5225065;28;20040;-32
2024/01/02 01:30:50;;;;;;;1.33;0.80;;;4.90;1.00;;;;;;5205115;28;20050;-32
2024/01/02 01:33:24;;;;;;;2.13;0.95;;;4.90;1.00;;;;;;5228681;28;20051;-32
2024/01/02 01:36:00;;;;;;;5.90;1.08;;;5.00;1.00;;;;;;5229440;28;20037;-32
2024/01/02 01:38:35;;;;;;;2.13;1.17;;;5.00;1.00;;;;;;5226780;28;20032;-32
2024/01/02 01:41:06;;;;;;;2.63;0.85;;;5.20;1.00;;;;;;5229279;28;20013;-32
2024/01/02 01:43:40;;;;;;;3.63;1.13;;;5.30;1.00;;;;;;5208838;28;20036;-33
2024/01/02 01:46:15;;;;;;;;;;;5.30;1.00;;;;;;5220986;28;20039;-32
2024/01/02 01:48:46;;;;;;;4.68;1.00;;;5.40;1.00;;;;;;5228329;28;20154;-32
2024/01/02 01:51:17;;;;;;;2.40;0.90;;;5.50;1.00;;;;;;5221204;28;20263;-30
2024/01/02 01:53:50;;;;;;;4.32;0.63;;;5.50;1.00;;;;;;5230894;28;20312;-31
2024/01/02 01:56:24;;;;;;;1.70;0.85;;;5.50;1.00;;;;;;5204980;28;20060;-31
2024/01/02 01:58:56;;;;;;;;;;;5.60;1.00;;;;;;5227310;28;20037;-36
2024/01/02 02:01:28;;;;;;;0.93;0.90;;;5.70;1.00;;;;;;5224321;28;19909;-32
2024/01/02 02:04:03;;;;;;;4.00;1.10;;;5.60;1.00;;;;;;5225795;28;20017;-32
2024/01/02 02:06:36;;;;;;;3.15;0.90;;;5.60;1.00;;;;;;5228339;28;20043;-32
2024/01/02 02:09:13;;;;;;;6.28;1.10;;;5.50;1.00;;;;;;5227185;28;20029;-32
2024/01/02 02:11:47;;;;;;;1.67;0.90;;;5.50;1.00;;;;;;5224986;28;20258;-32
2024/01/02 02:14:19;;;;;;;1.40;1.10;;;5.60;1.00;;;;;;5224537;28;20059;-32
2024/01/02 02:16:50;;;;;;;0.93;0.88;;;5.70;1.00;;;;;;5229066;28;20029;-31
2024/01/02 02:19:26;;;;;;;3.72;1.30;;;5.70;1.00;;;;;;5235205;28;20316;-32
2024/01/02 02:22:03;;;;;;;2.05;0.93;;;5.60;1.00;;;;;;5227569;28;20029;-32
2024/01/02 02:24:37;;;;;;;3.50;1.08;;;5.70;1.00;;;;;;5228534;28;20033;-33
2024/01/02 02:27:09;;;;;;;1.10;0.63;;;5.70;1.00;;;;;;5218774;28;20042;-32
2024/01/02 02:29:47;;;;;;;3.75;0.98;;;5.60;1.00;;;;;;5211482;28;20029;-31
2024/01/02 02:32:21;;;;;;;4.07;1.13;;;5.20;1.00;;;;;;5207703;28;20024;-36
2024/01/02 02:34:58;;;;;;;1.08;0.80;;;4.90;1.00;;;;;;5209818;28;20228;-31
2024/01/02 02:37:29;;;;;;;1.38;0.70;;;4.70;1.00;;;;;;5229151;28;20035;-31
2024/01/02 02:40:01;;;;;;;1.17;1.08;;;4.60;1.00;;;;;;5228671;28;20024;-31
2024/01/02 02:42:32;;;;;;;3.88;1.10;;;4.60;1.00;;;;;;5228864;28;20029;-33
2024/01/02 02:45:06;;;;;;;1.00;0.70;;;4.50;1.00;;;;;;5207867;28;20037;-31
2024/01/02 02:47:37;;;;;;;1.55;0.88;;;4.50;1.00;;;;;;5227374;28;20207;-31
2024/01/02 02:50:31;;;;;;;2.08;0.80;;;4.60;1.00;;;;;;5228026;28;20025;-32
2024/01/02 02:53:04;;;;;;;1.67;0.80;;;4.60;1.00;;;;;;5222812;28;20382;-33
2024/01/02 02:55:40;;;;;;;0.95;0.73;;;4.60;1.00;;;;;;5209633;28;20029;-32
2024/01/02 02:58:14;;;;;;;5.00;0.98;;;4.60;1.00;;;;;;5208641;28;20240;-32
2024/01/02 03:00:49;;;;;;;1.95;1.15;;;4.50;1.00;;;;;;5220069;28;20044;-31
2024/01/02 03:03:24;;;;;;;8.00;1.38;;;4.40;1.00;;;;;;5207480;28;20029;-31
2024/01/02 03:05:56;;;;;;;1.45;0.75;;;4.20;1.00;;;;;;5224234;28;20036;-34
2024/01/02 03:08:27;;;;;;;2.28;0.70;;;4.10;1.00;;;;;;5228469;28;20036;-31
2024/01/02 03:10:59;;;;;;;1.77;0.93;;;4.10;1.00;;;;;;5226832;28;20055;-32
2024/01/02 03:13:32;;;;;;;3.50;0.90;;;4.00;1.00;;;;;;5223186;28;20037;-31
2024/01/02 03:16:04;;;;;;;0.70;0.70;;;4.10;1.00;;;;;;5203710;28;20342;-30
2024/01/02 03:18:36;;;;;;;6.35;1.20;;;4.10;1.00;;;;;;5207326;28;20337;-31
2024/01/02 03:21:12;;;;;;;3.75;1.30;;;3.90;1.00;;;;;;5209554;28;20033;-31
2024/01/02 03:23:44;;;;;;;1.23;0.95;;;3.90;1.00;;;;;;5226822;28;20035;-32
2024/01/02 03:26:18;;;;;;;3.10;1.00;;;3.90;1.00;;;;;;5203660;28;20037;-32
2024/01/02 03:28:53;;;;;;;2.15;0.90;;;3.90;1.00;;;;;;5207184;28;20045;-32
2024/01/02 03:31:24;;;;;;;;;;;3.80;1.00;;;;;;5203762;28;20064;-32
2024/01/02 03:33:58;;;;;;;3.80;0.95;;;3.90;1.00;;;;;;5208617;28;20181;-32
2024/01/02 03:36:30;;;;;;;2.75;1.00;;;3.80;1.00;;;;;;5209401;28;20206;-32
2024/01/02 03:39:04;;;;;;;4.93;1.15;;;3.70;1.00;;;;;;5226297;28;20041;-32
2024/01/02 03:41:38;;;;;;;1.75;1.20;;;3.60;1.00;;;;;;5208651;28;20036;-32
2024/01/02 03:44:18;;;;;;;5.93;1.60;;;3.50;1.00;;;;;;5219484;28;20201;-32
2024/01/02 03:46:49;;;;;;;2.28;1.80;;;3.40;1.00;;;;;;5212330;28;20353;-32
2024/01/02 03:49:23;;;;;;;2.30;0.90;;;3.30;1.00;;;;;;5206285;28;20040;-32
2024/01/02 03:51:59;;;;;;;1.93;1.20;;;3.20;20.70;;;;;;5176361;28;20241;-32
2024/01/02 03:54:31;;;;;;;1.92;0.98;;;3.20;52.80;;;;;;5199058;28;20245;-32
2024/01/02 03:57:02;;;;;;;0.95;0.90;;;3.30;61.70;;;;;;5222878;28;20055;-32
2024/01/02 03:59:37;;;;;;;1.58;1.17;;;3.30;62.30;;;;;;5207130;28;20043;-33
2024/01/02 04:02:14;;;;;;;2.03;0.90;;;3.30;72.00;;;;;;5223113;28;20043;-30
2024/01/02 04:04:48;;;;;;;1.52;1.00;;;3.30;76.40;;;;;;5210819;28;20328;-36
2024/01/02 04:07:26;;;;;;;2.20;1.27;;;3.30;79.00;;;;;;5229078;28;20029;-32
2024/01/02 04:09:57;;;;;;;7.53;1.02;;;3.30;75.00;;;;;;5226191;28;20345;-32
2024/01/02 04:12:28;;;;;;;1.08;0.70;;;3.40;95.00;;;;;;5206951;28;20045;-32
2024/01/02 04:15:00;;;;;;;3.25;0.85;;;3.40;93.30;;;;;;5206368;28;20033;-32
2024/01/02 04:17:35;;;;;;;1.75;0.90;;;3.50;75.90;;;;;;5204541;28;20033;-31
2024/01/02 04:20:10;;;;;;;0.90;0.90;;;3.50;99.20;;;;;;5215442;28;20217;-31
2024/01/02 04:22:44;;;;;;;0.82;0.70;;;3.50;60.90;;;;;;5244084;28;20033;-31
2024/01/02 04:25:17;;;;;;;0.90;0.90;;;3.40;94.80;;;;;;5245079;28;20059;-31
2024/01/02 04:27:55;;;;;;;1.50;0.98;;;3.40;84.90;;;;;;5201426;28;20037;-31
2024/01/02 04:30:30;;;;;;;1.63;1.00;;;3.50;74.80;;;;;;5188485;28;20025;-33
2024/01/02 04:33:02;;;;;;;1.20;1.10;;;3.40;63.50;;;;;;5225800;28;20344;-31
2024/01/02 04:35:33;;;;;;;1.77;0.80;;;3.30;78.60;;;;;;5229086;28;20029;-31
2024/01/02 04:38:08;;;;;;;2.20;1.73;;;3.20;99.90;;;;;;5211388;28;20025;-36
2024/01/02 04:40:39;;;;;;;1.80;0.82;;;3.20;99.90;;;;;;5226994;28;20059;-32
2024/01/02 04:43:10;;;;;;;2.17;0.90;;;3.10;90.70;;;;;;5229096;28;20043;-32
2024/01/02 04:45:45;;;;;;;5.38;1.15;;;3.10;98.60;;;;;;5223220;28;20295;-32
2024/01/02 04:48:17;;;;;;;2.17;1.48;;;3.10;97.80;;;;;;5207917;28;20022;-31
2024/01/02 04:50:55;;;;;;;3.58;1.10;;;3.10;99.90;;;;;;5208339;28;20041;-30
2024/01/02 04:53:26;;;;;;;0.75;0.73;;;3.00;99.90;;;;;;5207430;28;20045;-30
2024/01/02 04:56:00;;;;;;;7.47;1.00;;;3.00;99.90;;;;;;5207032;28;20043;-30
2024/01/02 04:58:34;;;;;;;1.02;0.88;;;3.00;99.90;;;;;;5209550;28;20025;-30
2024/01/02 05:01:08;;;;;;;1.83;1.13;;;3.00;99.90;;;;;;5220756;28;20029;-31
2024/01/02 05:03:43;;;;;;;1.50;1.00;;;3.00;99.90;;;;;;5210782;28;20035;-33
2024/01/02 05:06:17;;;;;;;0.75;0.70;;;3.10;99.90;;;;;;5211403;28;20036;-33
2024/01/02 05:08:51;;;;;;;;;;;3.20;99.90;;;;;;5228047;28;20045;-30
2024/01/02 05:11:24;;;;;;;2.83;0.98;;;3.20;99.90;;;;;;5224859;28;19908;-30
2024/01/02 05:14:01;;;;;;;1.45;0.93;;;3.30;99.90;;;;;;5230822;28;20228;-30
2024/01/02 05:16:38;;;;;;;5.32;1.63;;;3.10;99.90;;;;;;5228307;28;20343;-30
2024/01/02 05:19:12;;;;;;;1.58;1.10;;;3.00;99.90;;;;;;5228514;28;20032;-31
2024/01/02 05:21:46;;;;;;;3.08;1.33;;;2.90;99.90;;;;;;5237753;28;20050;-32
2024/01/02 05:24:22;;;;;;;2.17;2.00;;;2.80;99.90;;;;;;5252417;28;20029;-32
2024/01/02 05:26:59;;;;;;;5.57;2.80;;;2.60;99.90;;;;;;5231914;28;20220;-31
2024/01/02 05:29:46;;;;;;;3.72;1.98;;;2.50;1.00;;;;;;5231120;28;20040;-32
2024/01/02 05:32:19;;;;;;;2.38;1.40;;;2.40;1.00;;;;;;5222562;28;20446;-32
2024/01/02 05:34:51;;;;;;;5.10;2.00;;;2.30;1.00;;;;;;5231580;28;20029;-33
2024/01/02 05:37:22;;;;;;;1.85;1.10;;;2.30;22.90;;;;;;5200178;28;20529;-32
2024/01/02 05:39:56;;;;;;;1.33;1.02;;;2.30;99.90;;;;;;5210242;28;20036;-33
2024/01/02 05:42:27;;;;;;;;;;;2.30;99.90;;;;;;5211013;28;20202;-33
2024/01/02 05:45:02;;;;;;;5.05;1.25;;;2.30;99.90;;;;;;5210207;28;19901;-32
2024/01/02 05:47:35;;;;;;;1.23;1.13;;;2.30;1.00;;;;;;5208465;28;20028;-31
2024/01/02 05:50:06;;;;;;;2.65;1.10;;;2.40;1.00;;;;;;5229511;28;20041;-31
2024/01/02 05:52:41;;;;;;;1.85;1.15;;;2.40;1.00;;;;;;5226031;28;20052;-32
2024/01/02 05:55:14;;;;;;;3.63;1.52;;;2.40;1.00;;;;;;5246728;28;20024;-32
2024/01/02 05:57:48;;;;;;;3.42;1.08;;;2.50;1.00;;;;;;5228058;28;20312;-31
2024/01/02 06:00:23;;;;;;;4.15;1.90;;;2.60;1.00;;;;;;5209471;28;20370;-32
2024/01/02 06:02:57;;;;;;;3.72;1.70;;;2.50;1.00;;;;;;5211781;28;20371;-32
2024/01/02 06:05:31;;;;;;;4.97;1.67;;;2.50;1.00;;;;;;5211924;28;20041;-32
2024/01/02 06:08:08;;;;;;;4.57;2.30;;;2.50;1.00;;;;;;5230840;28;20028;-32
2024/01/02 06:10:43;;;;;;;5.82;1.58;;;2.50;1.00;;;;;;5228939;28;20036;-32
2024/01/02 06:13:17;;;;;;;6.03;1.63;;;2.60;1.00;;;;;;5231328;28;20059;-32
2024/01/02 06:15:48;;;;;;;4.47;1.40;;;2.50;1.00;;;;;;5226466;28;20048;-32
2024/01/02 06:18:19;;;;;;;2.95;1.45;;;2.50;99.90;;;;;;5230507;28;20270;-32
2024/01/02 06:20:57;;;;;;;3.60;1.52;;;2.50;1.00;;;;;;5223875;28;20712;-32
2024/01/02 06:23:29;;;;;;;2.00;1.17;;;2.50;1.00;;;;;;5219887;28;20213;-32
2024/01/02 06:26:05;;;;;;;3.00;1.67;;;2.40;99.90;;;;;;5220206;28;20025;-32
2024/01/02 06:28:39;;;;;;;2.58;1.90;;;2.50;99.90;;;;;;5214099;28;20033;-32
2024/01/02 06:31:15;;;;;;;6.90;1.33;;;2.60;99.90;;;;;;5208542;28;20033;-32
2024/01/02 06:33:48;;;;;;;3.05;2.03;;;2.60;99.90;;;;;;5230492;28;20036;-32
2024/01/02 06:36:19;;;;;;;3.38;2.15;;;2.60;99.90;;;;;;5229868;28;20039;-33
2024/01/02 06:38:55;;;;;;;3.97;1.95;;;2.60;99.90;;;;;;5195154;28;20039;-33
2024/01/02 06:41:34;;;;;;;3.47;2.15;;;2.60;99.90;;;;;;5230063;28;20029;-31
2024/01/02 06:44:07;;;;;;;7.43;3.00;;;2.60;99.90;;;;;;5211468;28;20032;-36
2024/01/02 06:46:39;;;;;;;5.15;1.90;;;2.60;99.90;;;;;;5227100;28;20017;-32
2024/01/02 06:49:12;;;;;;;3.63;2.47;;;2.60;99.90;;;;;;5228065;28;20044;-32
2024/01/02 06:51:51;;;;;;;4.13;2.05;;;2.60;1.00;;;;;;5229513;28;20045;-32
2024/01/02 06:54:27;;;;;;;9.68;5.55;;;2.70;1.00;;;;;;5229593;28;20068;-30
2024/01/02 06:57:06;;;;;;;8.60;4.20;;;2.80;1.00;;;;;;5205340;28;20033;-31
2024/01/02 06:59:48;;;;;;;;;;;2.80;99.90;;;;;;5210324;28;20025;-30
2024/01/02 07:02:21;;;;;;;4.25;1.90;;;2.60;1.00;;;;;;5218139;28;20167;-31
2024/01/02 07:04:56;;;;;;;3.83;2.13;;;2.60;1.00;;;;;;5239691;28;20032;-31
2024/01/02 07:07:28;;;;;;;;;;;2.70;1.00;;;;;;5213163;28;20245;-31
2024/01/02 07:10:00;;;;;;;3.90;1.50;;;2.70;99.90;;;;;;5227141;28;19915;-31
2024/01/02 07:12:36;;;;;;;3.72;1.60;;;2.80;99.90;;;;;;5209217;28;20063;-31
2024/01/02 07:15:11;;;;;;;3.08;1.92;;;2.90;1.00;;;;;;5226076;28;20020;-32
2024/01/02 07:17:45;;;;;;;3.30;1.92;;;2.90;99.90;;;;;;5194005;28;20147;-34
2024/01/02 07:20:16;;;;;;;10.20;3.22;;;2.90;99.90;;;;;;5205620;28;20039;-31
2024/01/02 07:22:48;;;;;;;1.63;1.40;;;2.90;99.90;;;;;;5180483;28;20235;-31
2024/01/02 07:25:22;;;;;;;2.08;1.65;;;2.90;1.00;;;;;;5221745;28;20047;-31
2024/01/02 07:27:57;;;;;;;2.33;1.67;;;3.00;99.90;;;;;;5213256;28;20270;-32
2024/01/02 07:30:28;;;;;;;;;;;3.10;99.90;;;;;;5225406;28;20033;-32
2024/01/02 07:33:01;;;;;;;8.23;1.80;;;3.10;99.90;;;;;;5214186;28;19964;-32
2024/01/02 07:35:32;;;;;;;6.07;2.13;;;3.30;99.90;;;;;;5209972;28;20025;-32
2024/01/02 07:38:06;;;;;;;7.93;2.25;;;3.50;99.90;;;;;;5205210;28;20056;-32
2024/01/02 07:40:40;;;;;;;9.07;2.47;;;3.70;7.50;;;;;;5207986;28;20570;-32
2024/01/02 07:43:14;;;;;;;2.80;1.45;;;3.80;1.00;;;;;;5210577;28;20250;-33
2024/01/02 07:45:51;;;;;;;2.78;2.03;;;3.90;1.00;;;;;;5209826;28;20352;-31
2024/01/02 07:48:25;;;;;;;6.60;2.35;;;4.00;1.00;;;;;;5213615;28;20033;-31
2024/01/02 07:50:59;;;;;;;3.33;2.35;;;4.00;1.00;;;;;;5215197;28;20041;-35
2024/01/02 07:53:32;;;;;;;;;;;4.00;1.00;;;;;;5207550;28;20373;-30
2024/01/02 07:56:08;;;;;;;2.63;2.10;;;4.00;1.00;;;;;;5208624;28;20350;-31
2024/01/02 07:58:42;;;;;;;5.05;2.63;;;4.00;1.00;;;;;;5205712;28;20052;-30
2024/01/02 08:01:17;;;;;;;12.55;5.30;;;4.20;1.00;;;;;;5211108;28;20044;-33
2024/01/02 08:03:48;;;;;;;12.60;5.53;;;4.20;1.00;;;;;;5222284;28;20206;-31
2024/01/02 08:06:20;;;;;;;10.02;4.97;;;4.30;1.00;;;;;;5226877;28;20047;-31
2024/01/02 08:08:53;;;;;;;10.98;6.07;;;4.30;1.00;;;;;;5218772;28;20037;-32
2024/01/02 08:11:27;;;;;;;11.77;5.55;;;4.50;1.00;;;;;;5209331;28;20037;-32
2024/01/02 08:13:58;;;;;;;12.80;5.22;;;4.50;1.00;;;;;;5223379;28;20043;-32
2024/01/02 08:16:34;;;;;;;7.75;4.38;;;4.40;1.00;;;;;;5208311;28;20037;-32
2024/01/02 08:19:05;;;;;;;7.72;4.20;;;4.40;1.00;;;;;;5198806;28;20031;-31
2024/01/02 08:21:36;;;;;;;20.38;4.65;;;4.30;1.00;;;;;;5225983;28;20217;-32
2024/01/02 08:24:08;;;;;;;5.90;4.05;;;4.40;1.00;;;;;;5223688;28;20041;-31
2024/01/02 08:26:42;;;;;;;8.50;4.28;;;4.40;1.00;;;;;;5207095;28;20036;-31
2024/01/02 08:29:13;;;;;;;;;;;4.30;1.00;;;;;;5207210;28;20037;-31
2024/01/02 08:31:44;;;;;;;7.80;3.88;;;4.40;1.00;;;;;;5219590;28;19915;-31
2024/01/02 08:34:18;;;;;;;7.82;4.40;;;4.50;1.00;;;;;;5229901;28;20202;-31
2024/01/02 08:36:57;;;;;;;7.22;4.10;;;4.50;1.00;;;;;;5228202;28;20356;-31
2024/01/02 08:39:30;;;;;;;8.23;3.85;;;4.30;1.00;;;;;;5214842;28;20045;-32
2024/01/02 08:42:02;;;;;;;5.90;3.50;;;4.20;1.00;;;;;;5221323;28;20029;-31
2024/01/02 08:44:38;;;;;;;8.13;3.92;;;4.30;1.00;;;;;;5216537;28;20305;-31
2024/01/02 08:47:09;;;;;;;9.52;4.97;;;4.50;1.00;;;;;;5211204;28;20183;-31
2024/01/02 08:49:46;;;;;;;13.27;4.93;;;4.60;1.00;;;;;;5225189;28;20309;-33
2024/01/02 08:52:18;;;;;;;11.48;5.35;;;4.60;1.00;;;;;;5217334;28;20073;-32
2024/01/02 08:54:49;;;;;;;9.65;5.18;;;4.80;1.00;;;;;;5215937;28;20047;-32
2024/01/02 08:57:20;;;;;;;9.23;4.75;;;4.90;1.00;;;;;;5228142;28;20041;-32
2024/01/02 08:59:57;;;;;;;9.48;4.80;;;5.00;1.00;;;;;;5227759;28;20039;-32
2024/01/02 09:02:32;;;;;;;11.43;4.90;;;5.10;1.00;;;;;;5222053;28;20025;-32
2024/01/02 09:05:04;;;;;;;8.63;4.65;;;5.30;1.00;;;;;;5228167;28;20028;-32
2024/01/02 09:07:36;;;;;;;8.77;4.47;;;5.30;1.00;;;;;;5228599;28;20033;-31
2024/01/02 09:10:08;;;;;;;7.53;4.45;;;5.30;1.00;;;;;;5226981;28;20033;-31
2024/01/02 09:12:42;;;;;;;8.23;3.63;;;5.40;1.00;;;;;;5225312;28;20033;-31
2024/01/02 09:15:16;;;;;;;6.97;3.08;;;5.70;1.00;;;;;;5218542;28;20043;-33
2024/01/02 09:17:49;;;;;;;6.25;3.40;;;5.90;1.00;;;;;;5226210;28;20033;-30
2024/01/02 09:20:23;;;;;;;6.80;2.90;;;6.20;1.00;;;;;;5194913;28;20040;-31
2024/01/02 09:22:55;;;;;;;5.40;3.25;;;6.40;1.00;;;;;;5224835;28;20063;-30
2024/01/02 09:25:30;;;;;;;4.53;2.85;;;6.40;1.00;;;;;;5227782;28;20020;-30
2024/01/02 09:28:04;;;;;;;5.60;3.75;;;6.40;1.00;;;;;;5225603;28;20032;-30
2024/01/02 09:30:35;;;;;;;4.22;2.72;;;6.50;1.00;;;;;;5224770;28;20029;-30
2024/01/02 09:33:10;;;;;;;4.47;2.28;;;6.60;1.00;;;;;;5226086;28;20014;-32
2024/01/02 09:35:45;;;;;;;10.00;5.28;;;6.70;99.90;;;;;;5220167;28;20047;-32
2024/01/02 09:38:21;;;;;;;5.78;3.63;;;6.80;99.90;;;;;;5223124;28;20039;-32
2024/01/02 09:41:17;;;;;;;4.88;3.08;;;6.70;99.90;;;;;;5212817;28;20478;-31
2024/01/02 09:43:55;;;;;;;4.53;2.35;;;6.90;99.90;;;;;;5221975;28;20029;-33
2024/01/02 09:46:34;;;;;;;5.60;3.42;;;6.90;99.90;;;;;;5219642;28;20305;-30
2024/01/02 09:49:21;;;;;;;6.10;3.50;;;7.00;99.90;;;;;;5210529;28;20318;-32
2024/01/02 09:52:04;;;;;;;7.00;3.15;;;7.00;99.90;;;;;;5211705;28;20039;-31
2024/01/02 09:54:52;;;;;;;5.65;2.65;;;7.10;99.90;;;;;;5215169;28;20033;-31
2024/01/02 09:57:36;;;;;;;2.63;2.20;;;7.10;99.90;;;;;;5193863;28;20036;-33
2024/01/02 10:00:11;;;;;;;5.38;2.50;;;7.10;99.90;;;;;;5215764;28;20031;-31
2024/01/02 10:03:15;;;;;;;2.17;1.35;;;7.30;99.90;;;;;;5219117;28;20035;-33
2024/01/02 10:05:58;;;;;;;1.42;1.30;;;7.30;99.90;;;;;;5209077;28;20026;-33
2024/01/02 10:08:44;;;;;;;1.73;1.02;;;7.20;99.90;;;;;;5220394;28;20367;-31
2024/01/02 10:11:21;;;;;;;3.00;1.40;;;7.00;99.90;;;;;;5212564;28;20044;-32
2024/01/02 10:14:09;;;;;;;2.83;1.30;;;7.00;90.70;;;;;;5217756;28;20020;-33
2024/01/02 10:17:05;;;;;;;15.25;2.97;;;7.10;88.80;;;;;;5212523;28;20039;-31
2024/01/02 10:19:50;;;;;;;1.77;1.60;;;7.30;99.90;;;;;;5192259;28;20043;-31
2024/01/02 10:22:51;;;;;;;6.78;1.75;;;7.50;99.90;;;;;;5211126;28;20037;-33
2024/01/02 10:25:22;;;;;;;5.13;3.58;;;7.60;99.90;;;;;;5205914;28;20337;-30
2024/01/02 10:28:05;;;;;;;3.20;2.65;;;7.50;99.90;;;;;;5220195;28;20033;-31
2024/01/02 10:30:50;;;;;;;13.85;5.10;;;7.40;32.30;;;;;;5203816;28;20417;-36
2024/01/02 10:33:38;;;;;;;9.18;3.65;;;7.40;1.00;;;;;;5203354;28;20245;-33
2024/01/02 10:36:18;;;;;;;35.00;15.77;;;7.40;1.00;;;;;;5210874;28;20032;-33
2024/01/02 10:39:12;;;;;;;15.65;8.55;;;7.30;1.00;;;;;;5212901;28;20367;-35
2024/01/02 10:41:56;;;;;;;12.88;6.38;;;7.20;1.00;;;;;;5208518;28;20043;-33
2024/01/02 10:44:37;;;;;;;3.20;2.20;;;7.30;1.00;;;;;;5198020;28;20033;-33
2024/01/02 10:47:23;;;;;;;5.38;3.65;;;7.30;1.00;;;;;;5203652;28;20078;-35
2024/01/02 10:49:59;;;;;;;5.50;3.05;;;7.30;1.00;;;;;;5220558;28;20329;-33
2024/01/02 10:52:45;;;;;;;6.57;4.22;;;7.40;1.00;;;;;;5208763;28;20241;-33
2024/01/02 10:55:29;;;;;;;4.75;3.08;;;7.50;1.00;;;;;;5209588;28;20028;-33
2024/01/02 10:58:27;;;;;;;3.80;2.10;;;7.50;1.00;;;;;;5214760;28;20028;-32
2024/01/02 11:01:16;;;;;;;3.80;2.67;;;7.60;1.00;;;;;;5201365;28;20262;-32
2024/01/02 11:03:58;;;;;;;4.30;2.15;;;7.80;23.80;;;;;;5203378;28;20029;-32
2024/01/02 11:06:51;;;;;;;2.55;2.13;;;8.00;1.00;;;;;;5219510;28;20048;-31
2024/01/02 11:09:44;;;;;;;3.80;2.25;;;8.20;99.90;;;;;;5211215;28;20049;-31
2024/01/02 11:12:18;;;;;;;4.03;1.95;;;7.80;51.70;;;;;;5222873;28;20198;-35
2024/01/02 11:14:55;;;;;;;1.65;1.55;;;7.90;2.70;;;;;;5223223;28;20029;-31
2024/01/02 11:17:31;;;;;;;2.95;1.48;;;8.00;1.00;;;;;;5221759;28;20029;-31
2024/01/02 11:20:11;;;;;;;1.67;1.58;;;8.20;1.00;;;;;;5215541;28;20282;-31
2024/01/02 11:23:02;;;;;;;1.60;1.23;;;8.30;1.00;;;;;;5229073;28;20201;-31
2024/01/02 11:26:05;;;;;;;1.65;1.08;;;8.30;1.00;;;;;;5210852;28;20033;-31
2024/01/02 11:28:49;;;;;;;1.50;1.40;;;8.40;1.00;;;;;;5219453;28;20309;-30
2024/01/02 11:31:21;;;;;;;2.13;1.33;;;8.30;1.00;;;;;;5207322;28;20028;-30
2024/01/02 11:34:10;;;;;;;2.15;1.30;;;8.20;1.00;;;;;;5219171;28;20328;-30
2024/01/02 11:37:10;;;;;;;1.90;1.33;;;8.10;1.00;;;;;;5221684;28;20029;-31
2024/01/02 11:39:56;;;;;;;2.25;1.08;;;8.10;1.00;;;;;;5206751;28;20025;-33
2024/01/02 11:42:40;;;;;;;1.73;1.40;;;8.00;1.00;;;;;;5207813;28;20039;-32
2024/01/02 11:45:17;;;;;;;1.75;1.33;;;7.90;1.00;;;;;;5212831;28;20321;-33
2024/01/02 11:48:18;;;;;;;1.83;1.45;;;8.00;1.00;;;;;;5215420;28;20044;-31
2024/01/02 11:51:02;;;;;;;3.08;1.17;;;8.20;1.00;;;;;;5223211;28;20047;-32
2024/01/02 11:54:13;;;;;;;1.90;1.42;;;8.40;1.00;;;;;;5193510;28;20036;-32
2024/01/02 11:56:47;;;;;;;1.65;1.27;;;8.50;1.00;;;;;;5190479;28;20038;-30
2024/01/02 11:59:36;;;;;;;1.33;1.20;;;8.60;1.00;;;;;;5205597;28;20052;-30
2024/01/02 12:02:29;;;;;;;2.53;1.70;;;8.60;1.00;;;;;;5202439;28;20303;-30
2024/01/02 12:05:46;;;;;;;4.63;2.00;;;8.50;1.00;;;;;;5196189;28;20040;-30
2024/01/02 12:08:24;;;;;;;3.72;1.75;;;8.70;1.00;;;;;;5161187;28;20024;-30
2024/01/02 12:11:04;;;;;;;2.78;1.67;;;8.80;1.00;;;;;;5170269;28;20352;-33
2024/01/02 12:13:58;;;;;;;4.03;1.70;;;8.90;1.00;;;;;;5169378;28;20038;-32
2024/01/02 12:16:36;;;;;;;2.88;1.77;;;9.00;1.00;;;;;;5166375;28;20447;-31
2024/01/02 12:19:16;;;;;;;3.50;2.00;;;9.00;1.00;;;;;;5169137;28;20367;-31
2024/01/02 12:21:56;;;;;;;3.97;2.03;;;9.20;1.00;;;;;;5177269;28;20358;-31
2024/01/02 12:24:30;;;;;;;2.72;2.00;;;9.30;1.00;;;;;;5169561;28;20042;-31
2024/01/02 12:27:09;;;;;;;2.90;1.95;;;9.60;1.00;;;;;;5169345;28;20068;-31
2024/01/02 12:29:50;;;;;;;4.65;2.28;;;9.90;1.00;;;;;;5170610;28;20026;-32
2024/01/02 12:32:39;;;;;;;4.05;2.33;;;10.30;1.00;;;;;;5167063;28;20070;-32
2024/01/02 12:35:24;;;;;;;6.65;2.15;;;10.70;1.00;;;;;;5169700;28;20053;-32
2024/01/02 12:38:14;;;;;;;;;;;10.70;1.00;;;;;;5173377;28;20361;-31
2024/01/02 12:40:48;;;;;;;2.65;2.25;;;10.70;1.00;;;;;;5210669;28;19919;-31
2024/01/02 12:43:29;;;;;;;4.32;2.65;;;10.70;1.00;;;;;;5209877;28;20027;-31
2024/01/02 12:46:19;;;;;;;3.50;2.30;;;10.80;1.00;;;;;;5180414;28;20021;-30
2024/01/02 12:48:59;;;;;;;4.07;2.25;;;10.90;1.00;;;;;;5189477;28;20253;-30
2024/01/02 12:51:36;;;;;;;3.30;1.70;;;10.70;1.00;;;;;;5199155;28;20033;-30
2024/01/02 12:54:14;;;;;;;3.83;2.60;;;10.30;1.00;;;;;;5231896;28;20053;-30
2024/01/02 12:57:02;;;;;;;2.60;1.90;;;10.20;1.00;;;;;;5211752;28;20037;-30
2024/01/02 12:59:36;;;;;;;3.78;2.63;;;10.30;1.00;;;;;;5231857;28;20025;-32
2024/01/02 13:02:07;;;;;;;4.40;2.55;;;10.20;1.00;;;;;;5230080;28;20292;-32
2024/01/02 13:04:39;;;;;;;4.68;2.92;;;10.30;1.00;;;;;;5233787;28;20035;-32
2024/01/02 13:07:12;;;;;;;3.65;2.60;;;9.90;1.00;;;;;;5210966;28;20340;-32
2024/01/02 13:09:45;;;;;;;3.35;2.90;;;9.80;1.00;;;;;;5227868;28;20349;-35
2024/01/02 13:12:20;;;;;;;4.50;2.70;;;9.80;1.00;;;;;;5216023;28;20362;-32
2024/01/02 13:14:52;;;;;;;6.40;3.75;;;9.80;1.00;;;;;;5233321;28;20254;-31
2024/01/02 13:17:24;;;;;;;5.18;3.28;;;9.90;1.00;;;;;;5218870;28;20039;-31
2024/01/02 13:19:59;;;;;;;3.85;2.90;;;9.80;1.00;;;;;;5224063;28;20266;-31
2024/01/02 13:22:32;;;;;;;6.75;3.15;;;9.50;1.00;;;;;;5226890;28;20033;-31
2024/01/02 13:25:18;;;;;;;4.75;2.42;;;9.40;1.00;;;;;;5226496;28;20028;-31
2024/01/02 13:27:54;;;;;;;3.63;2.38;;;9.20;1.00;;;;;;5191664;28;20359;-31
2024/01/02 13:30:49;;;;;;;3.05;2.25;;;9.30;1.00;;;;;;5208716;28;20038;-31
2024/01/02 13:33:21;;;;;;;3.42;2.50;;;9.10;1.00;;;;;;5225704;28;20147;-31
2024/01/02 13:36:11;;;;;;;2.78;1.98;;;9.10;1.00;;;;;;5211524;28;20024;-32
2024/01/02 13:38:44;;;;;;;4.15;3.13;;;8.90;1.00;;;;;;5226817;28;20043;-32
2024/01/02 13:41:19;;;;;;;5.20;2.53;;;8.90;1.00;;;;;;5227085;28;20312;-32
2024/01/02 13:44:12;;;;;;;4.30;2.80;;;9.00;1.00;;;;;;5229350;28;20344;-32
2024/01/02 13:46:49;;;;;;;4.63;3.03;;;8.90;1.00;;;;;;5224019;28;20058;-33
2024/01/02 13:49:44;;;;;;;5.15;2.70;;;9.00;1.00;;;;;;5225388;28;20212;-30
2024/01/02 13:52:24;;;;;;;4.32;2.28;;;9.00;1.00;;;;;;5223002;28;20227;-32
2024/01/02 13:54:58;;;;;;;4.68;2.70;;;9.00;1.00;;;;;;5226696;28;20424;-32
2024/01/02 13:57:38;;;;;;;3.78;2.53;;;8.80;1.00;;;;;;5222488;28;20391;-32